sensor_id;sensor_type;location;lat;lon;timestamp;P1;durP1;ratioP1;P2;durP2;ratioP2
8675;SDS011;4375;52.486;13.424;2023-02-24T00:00:55;55.57;;;17.13;;
8675;SDS011;4375;52.486;13.424;2023-02-24T00:03:22;60.47;;;17.67;;
8675;SDS011;4375;52.486;13.424;2023-02-24T00:05:48;50.87;;;17.17;;
8675;SDS011;4375;52.486;13.424;2023-02-24T00:08:14;61.70;;;17.40;;
8675;SDS011;4375;52.486;13.424;2023-02-24T00:10:39;53.03;;;16.10;;
8675;SDS011;4375;52.486;13.424;2023-02-24T00:13:05;53.60;;;16.57;;
8675;SDS011;4375;52.486;13.424;2023-02-24T00:15:31;52.00;;;16.03;;
8675;SDS011;4375;52.486;13.424;2023-02-24T00:17:57;49.40;;;14.60;;
8675;SDS011;4375;52.486;13.424;2023-02-24T00:20:23;61.47;;;17.30;;
8675;SDS011;4375;52.486;13.424;2023-02-24T00:22:49;51.13;;;16.67;;
8675;SDS011;4375;52.486;13.424;2023-02-24T00:25:14;52.53;;;16.07;;
8675;SDS011;4375;52.486;13.424;2023-02-24T00:27:40;49.20;;;14.90;;
8675;SDS011;4375;52.486;13.424;2023-02-24T00:30:07;47.27;;;14.40;;
8675;SDS011;4375;52.486;13.424;2023-02-24T00:32:35;52.17;;;15.17;;
8675;SDS011;4375;52.486;13.424;2023-02-24T00:35:01;41.50;;;13.60;;
8675;SDS011;4375;52.486;13.424;2023-02-24T00:37:27;48.53;;;15.60;;
8675;SDS011;4375;52.486;13.424;2023-02-24T00:39:53;48.07;;;13.10;;
8675;SDS011;4375;52.486;13.424;2023-02-24T00:42:22;43.87;;;15.10;;
8675;SDS011;4375;52.486;13.424;2023-02-24T00:44:48;44.43;;;15.20;;
8675;SDS011;4375;52.486;13.424;2023-02-24T00:47:14;48.70;;;13.97;;
8675;SDS011;4375;52.486;13.424;2023-02-24T00:49:41;50.60;;;14.60;;
8675;SDS011;4375;52.486;13.424;2023-02-24T00:52:08;47.97;;;14.37;;
8675;SDS011;4375;52.486;13.424;2023-02-24T00:54:39;46.50;;;12.20;;
8675;SDS011;4375;52.486;13.424;2023-02-24T00:57:06;38.73;;;9.87;;
8675;SDS011;4375;52.486;13.424;2023-02-24T00:59:32;33.83;;;9.27;;
8675;SDS011;4375;52.486;13.424;2023-02-24T01:02:02;29.50;;;8.67;;
8675;SDS011;4375;52.486;13.424;2023-02-24T01:04:28;32.57;;;8.43;;
8675;SDS011;4375;52.486;13.424;2023-02-24T01:06:54;32.90;;;8.63;;
8675;SDS011;4375;52.486;13.424;2023-02-24T01:09:24;35.20;;;8.30;;
8675;SDS011;4375;52.486;13.424;2023-02-24T01:11:51;33.10;;;7.27;;
8675;SDS011;4375;52.486;13.424;2023-02-24T01:14:36;30.50;;;7.97;;
8675;SDS011;4375;52.486;13.424;2023-02-24T01:17:04;27.00;;;6.10;;
8675;SDS011;4375;52.486;13.424;2023-02-24T01:19:31;30.80;;;7.40;;
8675;SDS011;4375;52.486;13.424;2023-02-24T01:21:58;36.77;;;7.70;;
8675;SDS011;4375;52.486;13.424;2023-02-24T01:24:26;29.30;;;6.97;;
8675;SDS011;4375;52.486;13.424;2023-02-24T01:27:02;26.40;;;6.23;;
8675;SDS011;4375;52.486;13.424;2023-02-24T01:29:28;31.23;;;7.20;;
8675;SDS011;4375;52.486;13.424;2023-02-24T01:31:54;25.17;;;5.47;;
8675;SDS011;4375;52.486;13.424;2023-02-24T01:34:23;29.07;;;5.87;;
8675;SDS011;4375;52.486;13.424;2023-02-24T01:36:50;22.70;;;4.90;;
8675;SDS011;4375;52.486;13.424;2023-02-24T01:39:15;30.20;;;5.03;;
8675;SDS011;4375;52.486;13.424;2023-02-24T01:41:42;26.53;;;4.60;;
8675;SDS011;4375;52.486;13.424;2023-02-24T01:46:39;24.13;;;4.50;;
8675;SDS011;4375;52.486;13.424;2023-02-24T01:51:58;25.67;;;4.40;;
8675;SDS011;4375;52.486;13.424;2023-02-24T01:54:29;26.20;;;5.70;;
8675;SDS011;4375;52.486;13.424;2023-02-24T01:57:07;28.80;;;4.80;;
8675;SDS011;4375;52.486;13.424;2023-02-24T01:59:34;30.90;;;4.33;;
8675;SDS011;4375;52.486;13.424;2023-02-24T02:02:01;29.60;;;5.13;;
8675;SDS011;4375;52.486;13.424;2023-02-24T02:04:38;29.13;;;4.57;;
8675;SDS011;4375;52.486;13.424;2023-02-24T02:07:08;24.13;;;4.13;;
8675;SDS011;4375;52.486;13.424;2023-02-24T02:09:38;26.80;;;5.70;;
8675;SDS011;4375;52.486;13.424;2023-02-24T02:12:08;22.40;;;3.63;;
8675;SDS011;4375;52.486;13.424;2023-02-24T02:14:34;24.63;;;3.90;;
8675;SDS011;4375;52.486;13.424;2023-02-24T02:37:10;20.83;;;3.17;;
8675;SDS011;4375;52.486;13.424;2023-02-24T02:39:49;26.90;;;3.77;;
8675;SDS011;4375;52.486;13.424;2023-02-24T02:48:34;25.43;;;3.37;;
8675;SDS011;4375;52.486;13.424;2023-02-24T02:51:11;22.47;;;3.00;;
8675;SDS011;4375;52.486;13.424;2023-02-24T02:56:50;23.77;;;3.50;;
8675;SDS011;4375;52.486;13.424;2023-02-24T02:59:30;18.73;;;2.80;;
8675;SDS011;4375;52.486;13.424;2023-02-24T03:01:59;22.80;;;2.97;;
8675;SDS011;4375;52.486;13.424;2023-02-24T03:04:35;22.43;;;2.63;;
8675;SDS011;4375;52.486;13.424;2023-02-24T03:07:15;18.17;;;3.10;;
8675;SDS011;4375;52.486;13.424;2023-02-24T03:09:44;20.03;;;3.70;;
8675;SDS011;4375;52.486;13.424;2023-02-24T03:12:16;26.63;;;2.93;;
8675;SDS011;4375;52.486;13.424;2023-02-24T03:14:47;22.27;;;3.37;;
8675;SDS011;4375;52.486;13.424;2023-02-24T03:17:18;26.30;;;3.40;;
8675;SDS011;4375;52.486;13.424;2023-02-24T03:19:49;23.83;;;2.90;;
8675;SDS011;4375;52.486;13.424;2023-02-24T03:22:32;23.37;;;3.57;;
8675;SDS011;4375;52.486;13.424;2023-02-24T03:25:03;21.67;;;3.13;;
8675;SDS011;4375;52.486;13.424;2023-02-24T03:27:31;24.10;;;3.10;;
8675;SDS011;4375;52.486;13.424;2023-02-24T03:30:03;19.83;;;3.70;;
8675;SDS011;4375;52.486;13.424;2023-02-24T03:32:37;19.07;;;3.13;;
8675;SDS011;4375;52.486;13.424;2023-02-24T03:35:25;26.33;;;3.27;;
8675;SDS011;4375;52.486;13.424;2023-02-24T03:37:54;24.80;;;3.50;;
8675;SDS011;4375;52.486;13.424;2023-02-24T03:40:22;25.40;;;3.63;;
8675;SDS011;4375;52.486;13.424;2023-02-24T03:43:02;20.20;;;3.10;;
8675;SDS011;4375;52.486;13.424;2023-02-24T03:45:49;20.90;;;3.60;;
8675;SDS011;4375;52.486;13.424;2023-02-24T03:48:15;29.30;;;3.50;;
8675;SDS011;4375;52.486;13.424;2023-02-24T03:50:41;22.20;;;3.43;;
8675;SDS011;4375;52.486;13.424;2023-02-24T03:53:22;19.70;;;3.20;;
8675;SDS011;4375;52.486;13.424;2023-02-24T03:58:37;30.43;;;3.13;;
8675;SDS011;4375;52.486;13.424;2023-02-24T04:01:12;31.97;;;3.57;;
8675;SDS011;4375;52.486;13.424;2023-02-24T04:04:01;30.30;;;3.30;;
8675;SDS011;4375;52.486;13.424;2023-02-24T04:14:28;24.87;;;3.33;;
8675;SDS011;4375;52.486;13.424;2023-02-24T04:19:58;28.97;;;4.10;;
8675;SDS011;4375;52.486;13.424;2023-02-24T04:22:34;25.83;;;3.37;;
8675;SDS011;4375;52.486;13.424;2023-02-24T04:25:00;22.07;;;4.17;;
8675;SDS011;4375;52.486;13.424;2023-02-24T04:27:30;26.07;;;4.50;;
8675;SDS011;4375;52.486;13.424;2023-02-24T04:29:57;18.23;;;3.40;;
8675;SDS011;4375;52.486;13.424;2023-02-24T04:32:27;19.77;;;3.00;;
8675;SDS011;4375;52.486;13.424;2023-02-24T04:35:04;21.93;;;3.53;;
8675;SDS011;4375;52.486;13.424;2023-02-24T04:37:32;26.50;;;3.63;;
8675;SDS011;4375;52.486;13.424;2023-02-24T04:40:01;24.43;;;4.07;;
8675;SDS011;4375;52.486;13.424;2023-02-24T04:42:34;22.50;;;3.50;;
8675;SDS011;4375;52.486;13.424;2023-02-24T04:45:00;20.93;;;3.00;;
8675;SDS011;4375;52.486;13.424;2023-02-24T04:47:26;16.60;;;3.00;;
8675;SDS011;4375;52.486;13.424;2023-02-24T04:49:53;18.93;;;4.00;;
8675;SDS011;4375;52.486;13.424;2023-02-24T04:52:19;22.93;;;3.50;;
8675;SDS011;4375;52.486;13.424;2023-02-24T04:54:45;22.13;;;3.20;;
8675;SDS011;4375;52.486;13.424;2023-02-24T04:57:12;19.63;;;3.30;;
8675;SDS011;4375;52.486;13.424;2023-02-24T04:59:38;26.27;;;2.70;;
8675;SDS011;4375;52.486;13.424;2023-02-24T05:02:04;30.23;;;3.40;;
8675;SDS011;4375;52.486;13.424;2023-02-24T05:04:33;19.00;;;2.70;;
8675;SDS011;4375;52.486;13.424;2023-02-24T05:07:02;18.57;;;3.47;;
8675;SDS011;4375;52.486;13.424;2023-02-24T05:09:28;22.00;;;3.07;;
8675;SDS011;4375;52.486;13.424;2023-02-24T05:11:55;23.50;;;3.10;;
8675;SDS011;4375;52.486;13.424;2023-02-24T05:14:21;24.10;;;3.00;;
8675;SDS011;4375;52.486;13.424;2023-02-24T05:16:48;18.57;;;3.07;;
8675;SDS011;4375;52.486;13.424;2023-02-24T05:19:16;18.13;;;3.20;;
8675;SDS011;4375;52.486;13.424;2023-02-24T05:22:01;17.53;;;3.00;;
8675;SDS011;4375;52.486;13.424;2023-02-24T05:24:29;22.83;;;3.60;;
8675;SDS011;4375;52.486;13.424;2023-02-24T05:26:56;21.20;;;3.00;;
8675;SDS011;4375;52.486;13.424;2023-02-24T05:29:23;20.30;;;3.10;;
8675;SDS011;4375;52.486;13.424;2023-02-24T05:31:50;19.43;;;2.33;;
8675;SDS011;4375;52.486;13.424;2023-02-24T05:34:18;18.07;;;2.90;;
8675;SDS011;4375;52.486;13.424;2023-02-24T05:36:44;20.10;;;2.10;;
8675;SDS011;4375;52.486;13.424;2023-02-24T05:39:10;19.83;;;2.40;;
8675;SDS011;4375;52.486;13.424;2023-02-24T05:41:39;20.43;;;2.97;;
8675;SDS011;4375;52.486;13.424;2023-02-24T05:44:13;18.47;;;3.10;;
8675;SDS011;4375;52.486;13.424;2023-02-24T05:46:43;15.27;;;2.33;;
8675;SDS011;4375;52.486;13.424;2023-02-24T05:49:11;19.73;;;3.20;;
8675;SDS011;4375;52.486;13.424;2023-02-24T05:51:39;19.80;;;2.50;;
8675;SDS011;4375;52.486;13.424;2023-02-24T05:54:08;17.23;;;2.40;;
8675;SDS011;4375;52.486;13.424;2023-02-24T05:56:36;18.77;;;2.80;;
8675;SDS011;4375;52.486;13.424;2023-02-24T05:59:04;25.37;;;2.70;;
8675;SDS011;4375;52.486;13.424;2023-02-24T06:01:37;17.27;;;2.47;;
8675;SDS011;4375;52.486;13.424;2023-02-24T06:04:05;24.67;;;2.47;;
8675;SDS011;4375;52.486;13.424;2023-02-24T06:06:39;18.50;;;2.13;;
8675;SDS011;4375;52.486;13.424;2023-02-24T06:09:06;19.37;;;3.03;;
8675;SDS011;4375;52.486;13.424;2023-02-24T06:11:39;18.50;;;2.03;;
8675;SDS011;4375;52.486;13.424;2023-02-24T06:14:06;17.70;;;2.20;;
8675;SDS011;4375;52.486;13.424;2023-02-24T06:16:33;18.00;;;2.10;;
8675;SDS011;4375;52.486;13.424;2023-02-24T06:19:04;15.50;;;2.17;;
8675;SDS011;4375;52.486;13.424;2023-02-24T06:21:30;23.70;;;2.30;;
8675;SDS011;4375;52.486;13.424;2023-02-24T06:23:56;17.73;;;2.40;;
8675;SDS011;4375;52.486;13.424;2023-02-24T06:26:22;19.80;;;2.03;;
8675;SDS011;4375;52.486;13.424;2023-02-24T06:28:53;17.97;;;2.40;;
8675;SDS011;4375;52.486;13.424;2023-02-24T06:31:22;18.03;;;1.90;;
8675;SDS011;4375;52.486;13.424;2023-02-24T06:33:48;20.53;;;2.77;;
8675;SDS011;4375;52.486;13.424;2023-02-24T06:36:17;20.40;;;3.63;;
8675;SDS011;4375;52.486;13.424;2023-02-24T06:38:43;18.53;;;2.43;;
8675;SDS011;4375;52.486;13.424;2023-02-24T06:41:10;17.50;;;2.03;;
8675;SDS011;4375;52.486;13.424;2023-02-24T06:43:39;17.67;;;2.40;;
8675;SDS011;4375;52.486;13.424;2023-02-24T06:46:07;20.00;;;2.50;;
8675;SDS011;4375;52.486;13.424;2023-02-24T06:48:34;19.17;;;2.20;;
8675;SDS011;4375;52.486;13.424;2023-02-24T06:51:11;17.73;;;2.20;;
8675;SDS011;4375;52.486;13.424;2023-02-24T06:53:39;17.47;;;2.20;;
8675;SDS011;4375;52.486;13.424;2023-02-24T06:58:45;17.10;;;2.17;;
8675;SDS011;4375;52.486;13.424;2023-02-24T07:01:19;24.97;;;5.40;;
8675;SDS011;4375;52.486;13.424;2023-02-24T07:03:49;23.17;;;2.80;;
8675;SDS011;4375;52.486;13.424;2023-02-24T07:06:32;19.53;;;2.03;;
8675;SDS011;4375;52.486;13.424;2023-02-24T07:09:01;18.27;;;2.47;;
8675;SDS011;4375;52.486;13.424;2023-02-24T07:11:31;22.27;;;3.40;;
8675;SDS011;4375;52.486;13.424;2023-02-24T07:13:58;19.03;;;2.60;;
8675;SDS011;4375;52.486;13.424;2023-02-24T07:16:24;23.03;;;2.60;;
8675;SDS011;4375;52.486;13.424;2023-02-24T07:18:56;19.87;;;2.33;;
8675;SDS011;4375;52.486;13.424;2023-02-24T07:21:24;19.60;;;2.63;;
8675;SDS011;4375;52.486;13.424;2023-02-24T07:23:51;18.97;;;2.00;;
8675;SDS011;4375;52.486;13.424;2023-02-24T07:26:24;17.13;;;2.13;;
8675;SDS011;4375;52.486;13.424;2023-02-24T07:28:52;20.40;;;2.80;;
8675;SDS011;4375;52.486;13.424;2023-02-24T07:31:22;16.67;;;2.30;;
8675;SDS011;4375;52.486;13.424;2023-02-24T07:33:52;20.50;;;2.10;;
8675;SDS011;4375;52.486;13.424;2023-02-24T07:36:21;19.70;;;3.50;;
8675;SDS011;4375;52.486;13.424;2023-02-24T07:38:52;20.70;;;2.27;;
8675;SDS011;4375;52.486;13.424;2023-02-24T07:41:19;19.60;;;2.03;;
8675;SDS011;4375;52.486;13.424;2023-02-24T07:43:46;18.10;;;3.00;;
8675;SDS011;4375;52.486;13.424;2023-02-24T07:46:17;18.20;;;2.70;;
8675;SDS011;4375;52.486;13.424;2023-02-24T07:48:51;18.77;;;2.73;;
8675;SDS011;4375;52.486;13.424;2023-02-24T07:51:19;28.30;;;2.37;;
8675;SDS011;4375;52.486;13.424;2023-02-24T07:53:50;15.70;;;2.30;;
8675;SDS011;4375;52.486;13.424;2023-02-24T07:56:24;17.93;;;2.70;;
8675;SDS011;4375;52.486;13.424;2023-02-24T07:58:52;19.47;;;3.10;;
8675;SDS011;4375;52.486;13.424;2023-02-24T08:01:24;17.00;;;2.70;;
8675;SDS011;4375;52.486;13.424;2023-02-24T08:03:53;16.03;;;2.33;;
8675;SDS011;4375;52.486;13.424;2023-02-24T08:06:20;20.23;;;3.60;;
8675;SDS011;4375;52.486;13.424;2023-02-24T08:09:01;17.70;;;2.80;;
8675;SDS011;4375;52.486;13.424;2023-02-24T08:11:41;17.93;;;2.80;;
8675;SDS011;4375;52.486;13.424;2023-02-24T08:14:18;17.40;;;2.20;;
8675;SDS011;4375;52.486;13.424;2023-02-24T08:16:45;16.73;;;2.60;;
8675;SDS011;4375;52.486;13.424;2023-02-24T08:19:13;16.47;;;1.97;;
8675;SDS011;4375;52.486;13.424;2023-02-24T08:21:45;14.60;;;2.03;;
8675;SDS011;4375;52.486;13.424;2023-02-24T08:24:15;16.67;;;2.27;;
8675;SDS011;4375;52.486;13.424;2023-02-24T08:26:44;18.77;;;2.63;;
8675;SDS011;4375;52.486;13.424;2023-02-24T08:29:17;20.00;;;2.83;;
8675;SDS011;4375;52.486;13.424;2023-02-24T08:31:45;19.00;;;3.07;;
8675;SDS011;4375;52.486;13.424;2023-02-24T08:34:12;15.03;;;1.80;;
8675;SDS011;4375;52.486;13.424;2023-02-24T08:36:40;19.17;;;2.07;;
8675;SDS011;4375;52.486;13.424;2023-02-24T08:39:12;16.43;;;2.27;;
8675;SDS011;4375;52.486;13.424;2023-02-24T08:41:38;16.60;;;2.53;;
8675;SDS011;4375;52.486;13.424;2023-02-24T08:44:15;19.20;;;2.70;;
8675;SDS011;4375;52.486;13.424;2023-02-24T08:46:44;18.60;;;2.70;;
8675;SDS011;4375;52.486;13.424;2023-02-24T08:49:13;16.53;;;2.43;;
8675;SDS011;4375;52.486;13.424;2023-02-24T08:51:41;16.37;;;2.40;;
8675;SDS011;4375;52.486;13.424;2023-02-24T08:54:11;18.50;;;2.93;;
8675;SDS011;4375;52.486;13.424;2023-02-24T08:56:42;19.80;;;2.97;;
8675;SDS011;4375;52.486;13.424;2023-02-24T08:59:13;20.13;;;3.40;;
8675;SDS011;4375;52.486;13.424;2023-02-24T09:01:56;15.40;;;2.40;;
8675;SDS011;4375;52.486;13.424;2023-02-24T09:04:45;18.07;;;2.80;;
8675;SDS011;4375;52.486;13.424;2023-02-24T09:07:24;23.03;;;3.17;;
8675;SDS011;4375;52.486;13.424;2023-02-24T09:09:59;18.30;;;3.33;;
8675;SDS011;4375;52.486;13.424;2023-02-24T09:12:27;19.00;;;2.97;;
8675;SDS011;4375;52.486;13.424;2023-02-24T09:14:54;21.37;;;3.30;;
8675;SDS011;4375;52.486;13.424;2023-02-24T09:17:29;19.17;;;2.90;;
8675;SDS011;4375;52.486;13.424;2023-02-24T09:22:54;18.17;;;3.03;;
8675;SDS011;4375;52.486;13.424;2023-02-24T09:25:27;19.07;;;2.73;;
8675;SDS011;4375;52.486;13.424;2023-02-24T09:33:27;30.90;;;3.87;;
8675;SDS011;4375;52.486;13.424;2023-02-24T09:36:16;16.73;;;2.60;;
8675;SDS011;4375;52.486;13.424;2023-02-24T09:38:53;18.70;;;2.23;;
8675;SDS011;4375;52.486;13.424;2023-02-24T09:44:36;19.40;;;2.60;;
8675;SDS011;4375;52.486;13.424;2023-02-24T09:47:05;19.00;;;2.87;;
8675;SDS011;4375;52.486;13.424;2023-02-24T09:50:02;18.93;;;2.80;;
8675;SDS011;4375;52.486;13.424;2023-02-24T09:52:38;16.03;;;2.20;;
8675;SDS011;4375;52.486;13.424;2023-02-24T09:55:18;18.50;;;2.43;;
8675;SDS011;4375;52.486;13.424;2023-02-24T10:04:11;21.23;;;2.57;;
8675;SDS011;4375;52.486;13.424;2023-02-24T10:06:46;18.00;;;2.03;;
8675;SDS011;4375;52.486;13.424;2023-02-24T10:09:22;16.53;;;2.07;;
8675;SDS011;4375;52.486;13.424;2023-02-24T10:12:00;15.80;;;2.40;;
8675;SDS011;4375;52.486;13.424;2023-02-24T10:17:40;19.03;;;1.90;;
8675;SDS011;4375;52.486;13.424;2023-02-24T10:20:15;15.10;;;2.17;;
8675;SDS011;4375;52.486;13.424;2023-02-24T10:23:09;18.87;;;2.37;;
8675;SDS011;4375;52.486;13.424;2023-02-24T10:26:04;19.40;;;2.40;;
8675;SDS011;4375;52.486;13.424;2023-02-24T10:29:01;16.60;;;2.47;;
8675;SDS011;4375;52.486;13.424;2023-02-24T10:32:06;16.90;;;3.07;;
8675;SDS011;4375;52.486;13.424;2023-02-24T10:34:33;16.63;;;1.97;;
8675;SDS011;4375;52.486;13.424;2023-02-24T10:37:09;23.23;;;2.80;;
8675;SDS011;4375;52.486;13.424;2023-02-24T10:39:37;20.10;;;2.23;;
8675;SDS011;4375;52.486;13.424;2023-02-24T10:42:07;15.83;;;2.10;;
8675;SDS011;4375;52.486;13.424;2023-02-24T10:44:40;19.47;;;2.13;;
8675;SDS011;4375;52.486;13.424;2023-02-24T10:47:16;18.03;;;1.97;;
8675;SDS011;4375;52.486;13.424;2023-02-24T10:49:47;25.13;;;2.33;;
8675;SDS011;4375;52.486;13.424;2023-02-24T10:52:30;15.40;;;1.93;;
8675;SDS011;4375;52.486;13.424;2023-02-24T10:55:13;16.57;;;1.97;;
8675;SDS011;4375;52.486;13.424;2023-02-24T11:00:56;18.03;;;2.00;;
8675;SDS011;4375;52.486;13.424;2023-02-24T11:03:30;17.80;;;2.30;;
8675;SDS011;4375;52.486;13.424;2023-02-24T11:06:22;14.17;;;1.57;;
8675;SDS011;4375;52.486;13.424;2023-02-24T11:12:02;18.83;;;2.00;;
8675;SDS011;4375;52.486;13.424;2023-02-24T11:15:16;21.30;;;2.50;;
8675;SDS011;4375;52.486;13.424;2023-02-24T11:18:04;17.47;;;2.40;;
8675;SDS011;4375;52.486;13.424;2023-02-24T11:23:02;18.17;;;2.33;;
8675;SDS011;4375;52.486;13.424;2023-02-24T11:25:36;16.00;;;2.33;;
8675;SDS011;4375;52.486;13.424;2023-02-24T11:28:05;17.43;;;3.17;;
8675;SDS011;4375;52.486;13.424;2023-02-24T11:31:08;19.50;;;3.03;;
8675;SDS011;4375;52.486;13.424;2023-02-24T11:36:43;17.93;;;2.60;;
8675;SDS011;4375;52.486;13.424;2023-02-24T11:42:07;17.80;;;2.60;;
8675;SDS011;4375;52.486;13.424;2023-02-24T11:47:12;17.13;;;2.90;;
8675;SDS011;4375;52.486;13.424;2023-02-24T11:50:05;17.10;;;2.63;;
8675;SDS011;4375;52.486;13.424;2023-02-24T11:52:39;15.87;;;2.13;;
8675;SDS011;4375;52.486;13.424;2023-02-24T12:01:26;16.50;;;2.03;;
8675;SDS011;4375;52.486;13.424;2023-02-24T12:04:39;17.17;;;2.70;;
8675;SDS011;4375;52.486;13.424;2023-02-24T12:09:46;17.77;;;2.70;;
8675;SDS011;4375;52.486;13.424;2023-02-24T12:14:52;18.83;;;2.27;;
8675;SDS011;4375;52.486;13.424;2023-02-24T12:17:24;17.07;;;2.40;;
8675;SDS011;4375;52.486;13.424;2023-02-24T12:20:02;15.57;;;2.10;;
8675;SDS011;4375;52.486;13.424;2023-02-24T12:22:43;15.07;;;2.30;;
8675;SDS011;4375;52.486;13.424;2023-02-24T12:25:17;14.93;;;1.90;;
8675;SDS011;4375;52.486;13.424;2023-02-24T12:28:07;16.97;;;2.80;;
8675;SDS011;4375;52.486;13.424;2023-02-24T12:30:56;17.70;;;2.40;;
8675;SDS011;4375;52.486;13.424;2023-02-24T12:33:51;17.67;;;1.90;;
8675;SDS011;4375;52.486;13.424;2023-02-24T12:36:25;15.30;;;2.20;;
8675;SDS011;4375;52.486;13.424;2023-02-24T12:39:27;20.70;;;2.20;;
8675;SDS011;4375;52.486;13.424;2023-02-24T12:42:10;14.80;;;2.27;;
8675;SDS011;4375;52.486;13.424;2023-02-24T12:45:00;14.87;;;1.83;;
8675;SDS011;4375;52.486;13.424;2023-02-24T12:58:38;14.27;;;2.27;;
8675;SDS011;4375;52.486;13.424;2023-02-24T13:12:14;13.97;;;1.83;;
8675;SDS011;4375;52.486;13.424;2023-02-24T13:14:51;16.67;;;2.43;;
8675;SDS011;4375;52.486;13.424;2023-02-24T13:17:21;21.00;;;3.13;;
8675;SDS011;4375;52.486;13.424;2023-02-24T13:19:51;15.10;;;2.87;;
8675;SDS011;4375;52.486;13.424;2023-02-24T13:27:36;15.07;;;2.87;;
8675;SDS011;4375;52.486;13.424;2023-02-24T13:32:37;16.87;;;3.23;;
8675;SDS011;4375;52.486;13.424;2023-02-24T13:37:41;17.10;;;2.70;;
8675;SDS011;4375;52.486;13.424;2023-02-24T13:43:04;14.77;;;2.60;;
8675;SDS011;4375;52.486;13.424;2023-02-24T13:45:33;15.20;;;2.47;;
8675;SDS011;4375;52.486;13.424;2023-02-24T13:50:35;15.70;;;2.47;;
8675;SDS011;4375;52.486;13.424;2023-02-24T14:01:17;15.43;;;3.23;;
8675;SDS011;4375;52.486;13.424;2023-02-24T14:04:12;16.73;;;2.40;;
8675;SDS011;4375;52.486;13.424;2023-02-24T14:06:45;18.43;;;2.60;;
8675;SDS011;4375;52.486;13.424;2023-02-24T14:09:15;13.90;;;2.07;;
8675;SDS011;4375;52.486;13.424;2023-02-24T14:11:48;15.90;;;2.80;;
8675;SDS011;4375;52.486;13.424;2023-02-24T14:14:18;17.70;;;2.40;;
8675;SDS011;4375;52.486;13.424;2023-02-24T14:16:44;18.67;;;3.00;;
8675;SDS011;4375;52.486;13.424;2023-02-24T14:19:14;15.97;;;2.80;;
8675;SDS011;4375;52.486;13.424;2023-02-24T14:21:51;14.57;;;2.53;;
8675;SDS011;4375;52.486;13.424;2023-02-24T14:24:23;14.27;;;2.43;;
8675;SDS011;4375;52.486;13.424;2023-02-24T14:26:52;14.73;;;2.53;;
8675;SDS011;4375;52.486;13.424;2023-02-24T14:29:22;15.03;;;2.50;;
8675;SDS011;4375;52.486;13.424;2023-02-24T14:31:54;16.10;;;2.80;;
8675;SDS011;4375;52.486;13.424;2023-02-24T14:34:21;15.47;;;2.70;;
8675;SDS011;4375;52.486;13.424;2023-02-24T14:36:52;17.10;;;2.70;;
8675;SDS011;4375;52.486;13.424;2023-02-24T14:39:22;14.67;;;2.80;;
8675;SDS011;4375;52.486;13.424;2023-02-24T14:41:49;15.03;;;2.40;;
8675;SDS011;4375;52.486;13.424;2023-02-24T14:44:21;16.13;;;2.47;;
8675;SDS011;4375;52.486;13.424;2023-02-24T14:46:47;16.60;;;3.17;;
8675;SDS011;4375;52.486;13.424;2023-02-24T14:49:19;15.40;;;2.73;;
8675;SDS011;4375;52.486;13.424;2023-02-24T14:51:51;20.63;;;2.27;;
8675;SDS011;4375;52.486;13.424;2023-02-24T14:54:31;17.30;;;2.83;;
8675;SDS011;4375;52.486;13.424;2023-02-24T14:57:15;14.67;;;2.50;;
8675;SDS011;4375;52.486;13.424;2023-02-24T14:59:46;15.43;;;2.80;;
8675;SDS011;4375;52.486;13.424;2023-02-24T15:02:17;14.33;;;2.20;;
8675;SDS011;4375;52.486;13.424;2023-02-24T15:04:48;14.10;;;2.50;;
8675;SDS011;4375;52.486;13.424;2023-02-24T15:07:20;14.37;;;2.27;;
8675;SDS011;4375;52.486;13.424;2023-02-24T15:09:48;14.77;;;2.50;;
8675;SDS011;4375;52.486;13.424;2023-02-24T15:12:31;14.87;;;2.60;;
8675;SDS011;4375;52.486;13.424;2023-02-24T15:15:02;14.97;;;2.10;;
8675;SDS011;4375;52.486;13.424;2023-02-24T15:17:31;14.67;;;2.50;;
8675;SDS011;4375;52.486;13.424;2023-02-24T15:19:57;15.07;;;2.23;;
8675;SDS011;4375;52.486;13.424;2023-02-24T15:22:30;13.97;;;2.53;;
8675;SDS011;4375;52.486;13.424;2023-02-24T15:35:50;14.43;;;2.27;;
8675;SDS011;4375;52.486;13.424;2023-02-24T15:38:39;15.17;;;2.50;;
8675;SDS011;4375;52.486;13.424;2023-02-24T15:41:05;15.27;;;2.40;;
8675;SDS011;4375;52.486;13.424;2023-02-24T15:43:53;16.50;;;2.77;;
8675;SDS011;4375;52.486;13.424;2023-02-24T15:46:21;13.80;;;2.27;;
8675;SDS011;4375;52.486;13.424;2023-02-24T15:48:55;14.53;;;2.60;;
8675;SDS011;4375;52.486;13.424;2023-02-24T15:54:19;16.03;;;2.40;;
8675;SDS011;4375;52.486;13.424;2023-02-24T15:56:53;14.37;;;2.40;;
8675;SDS011;4375;52.486;13.424;2023-02-24T15:59:21;15.10;;;2.40;;
8675;SDS011;4375;52.486;13.424;2023-02-24T16:01:47;14.70;;;2.50;;
8675;SDS011;4375;52.486;13.424;2023-02-24T16:04:13;14.33;;;2.83;;
8675;SDS011;4375;52.486;13.424;2023-02-24T16:06:39;15.40;;;3.07;;
8675;SDS011;4375;52.486;13.424;2023-02-24T16:09:11;14.00;;;2.20;;
8675;SDS011;4375;52.486;13.424;2023-02-24T16:11:38;15.30;;;2.67;;
8675;SDS011;4375;52.486;13.424;2023-02-24T16:14:08;15.00;;;3.10;;
8675;SDS011;4375;52.486;13.424;2023-02-24T16:16:38;17.80;;;3.47;;
8675;SDS011;4375;52.486;13.424;2023-02-24T16:19:05;14.03;;;2.47;;
8675;SDS011;4375;52.486;13.424;2023-02-24T16:21:31;15.90;;;3.40;;
8675;SDS011;4375;52.486;13.424;2023-02-24T16:23:57;16.23;;;3.33;;
8675;SDS011;4375;52.486;13.424;2023-02-24T16:26:22;16.17;;;3.90;;
8675;SDS011;4375;52.486;13.424;2023-02-24T16:28:57;14.50;;;3.47;;
8675;SDS011;4375;52.486;13.424;2023-02-24T16:31:23;14.57;;;3.00;;
8675;SDS011;4375;52.486;13.424;2023-02-24T16:33:49;18.70;;;4.43;;
8675;SDS011;4375;52.486;13.424;2023-02-24T16:36:15;16.17;;;3.40;;
8675;SDS011;4375;52.486;13.424;2023-02-24T16:38:41;15.90;;;3.53;;
8675;SDS011;4375;52.486;13.424;2023-02-24T16:41:09;16.50;;;4.23;;
8675;SDS011;4375;52.486;13.424;2023-02-24T16:43:37;16.83;;;4.00;;
8675;SDS011;4375;52.486;13.424;2023-02-24T16:46:03;17.03;;;4.10;;
8675;SDS011;4375;52.486;13.424;2023-02-24T16:48:31;18.23;;;4.90;;
8675;SDS011;4375;52.486;13.424;2023-02-24T16:51:02;16.60;;;4.07;;
8675;SDS011;4375;52.486;13.424;2023-02-24T16:53:29;16.33;;;4.53;;
8675;SDS011;4375;52.486;13.424;2023-02-24T16:55:54;15.73;;;3.90;;
8675;SDS011;4375;52.486;13.424;2023-02-24T16:58:20;17.80;;;4.90;;
8675;SDS011;4375;52.486;13.424;2023-02-24T17:00:47;18.53;;;4.90;;
8675;SDS011;4375;52.486;13.424;2023-02-24T17:05:40;17.13;;;4.80;;
8675;SDS011;4375;52.486;13.424;2023-02-24T17:08:06;20.80;;;5.90;;
8675;SDS011;4375;52.486;13.424;2023-02-24T17:10:34;17.67;;;5.50;;
8675;SDS011;4375;52.486;13.424;2023-02-24T17:13:03;18.53;;;5.83;;
8675;SDS011;4375;52.486;13.424;2023-02-24T17:15:29;19.47;;;6.00;;
8675;SDS011;4375;52.486;13.424;2023-02-24T17:17:55;18.77;;;5.60;;
8675;SDS011;4375;52.486;13.424;2023-02-24T17:20:22;18.90;;;6.03;;
8675;SDS011;4375;52.486;13.424;2023-02-24T17:22:48;20.20;;;6.63;;
8675;SDS011;4375;52.486;13.424;2023-02-24T17:25:18;19.37;;;6.33;;
8675;SDS011;4375;52.486;13.424;2023-02-24T17:27:49;19.13;;;7.00;;
8675;SDS011;4375;52.486;13.424;2023-02-24T17:30:17;18.43;;;6.40;;
8675;SDS011;4375;52.486;13.424;2023-02-24T17:32:45;20.10;;;7.20;;
8675;SDS011;4375;52.486;13.424;2023-02-24T17:35:10;20.20;;;7.17;;
8675;SDS011;4375;52.486;13.424;2023-02-24T17:37:36;18.77;;;7.13;;
8675;SDS011;4375;52.486;13.424;2023-02-24T17:40:02;18.00;;;6.20;;
8675;SDS011;4375;52.486;13.424;2023-02-24T17:42:29;22.60;;;7.67;;
8675;SDS011;4375;52.486;13.424;2023-02-24T17:44:55;21.20;;;7.53;;
8675;SDS011;4375;52.486;13.424;2023-02-24T17:47:20;23.97;;;7.93;;
8675;SDS011;4375;52.486;13.424;2023-02-24T17:49:46;20.57;;;8.40;;
8675;SDS011;4375;52.486;13.424;2023-02-24T17:52:12;23.40;;;7.47;;
8675;SDS011;4375;52.486;13.424;2023-02-24T17:54:38;21.13;;;7.90;;
8675;SDS011;4375;52.486;13.424;2023-02-24T17:57:03;20.00;;;8.10;;